sensor_id;sensor_type;location;lat;lon;timestamp;P1;durP1;ratioP1;P2;durP2;ratioP2
64686;SDS011;51113;53.646;-113.674;2022-11-22T00:01:40;5.70;;;3.28;;
64686;SDS011;51113;53.646;-113.674;2022-11-22T00:04:09;8.43;;;3.05;;
64686;SDS011;51113;53.646;-113.674;2022-11-22T00:06:38;6.97;;;3.55;;
64686;SDS011;51113;53.646;-113.674;2022-11-22T00:09:07;8.02;;;3.50;;
64686;SDS011;51113;53.646;-113.674;2022-11-22T00:11:36;6.50;;;2.75;;
64686;SDS011;51113;53.646;-113.674;2022-11-22T00:14:04;5.43;;;3.00;;
64686;SDS011;51113;53.646;-113.674;2022-11-22T00:16:33;5.85;;;3.00;;
64686;SDS011;51113;53.646;-113.674;2022-11-22T00:19:01;6.90;;;3.17;;
64686;SDS011;51113;53.646;-113.674;2022-11-22T00:21:30;10.90;;;2.90;;
64686;SDS011;51113;53.646;-113.674;2022-11-22T00:23:59;6.28;;;2.58;;
64686;SDS011;51113;53.646;-113.674;2022-11-22T00:26:28;9.75;;;2.88;;
64686;SDS011;51113;53.646;-113.674;2022-11-22T00:28:56;7.70;;;3.05;;
64686;SDS011;51113;53.646;-113.674;2022-11-22T00:31:25;7.53;;;2.90;;
64686;SDS011;51113;53.646;-113.674;2022-11-22T00:33:54;9.20;;;3.03;;
64686;SDS011;51113;53.646;-113.674;2022-11-22T00:36:23;4.78;;;2.70;;
64686;SDS011;51113;53.646;-113.674;2022-11-22T00:38:52;5.28;;;2.58;;
64686;SDS011;51113;53.646;-113.674;2022-11-22T00:41:21;4.47;;;2.30;;
64686;SDS011;51113;53.646;-113.674;2022-11-22T00:43:49;4.45;;;2.28;;
64686;SDS011;51113;53.646;-113.674;2022-11-22T00:46:18;8.15;;;2.55;;
64686;SDS011;51113;53.646;-113.674;2022-11-22T00:48:47;4.20;;;2.30;;
64686;SDS011;51113;53.646;-113.674;2022-11-22T00:51:17;4.30;;;2.20;;
64686;SDS011;51113;53.646;-113.674;2022-11-22T00:53:46;6.32;;;2.58;;
64686;SDS011;51113;53.646;-113.674;2022-11-22T00:56:15;4.38;;;2.28;;
64686;SDS011;51113;53.646;-113.674;2022-11-22T00:58:43;7.95;;;2.50;;
64686;SDS011;51113;53.646;-113.674;2022-11-22T01:01:14;5.43;;;2.80;;
64686;SDS011;51113;53.646;-113.674;2022-11-22T01:03:42;5.15;;;2.35;;
64686;SDS011;51113;53.646;-113.674;2022-11-22T01:06:11;5.10;;;2.28;;
64686;SDS011;51113;53.646;-113.674;2022-11-22T01:08:43;5.05;;;2.35;;
64686;SDS011;51113;53.646;-113.674;2022-11-22T01:11:13;4.13;;;2.10;;
64686;SDS011;51113;53.646;-113.674;2022-11-22T01:13:44;7.68;;;2.20;;
64686;SDS011;51113;53.646;-113.674;2022-11-22T01:16:12;5.60;;;2.22;;
64686;SDS011;51113;53.646;-113.674;2022-11-22T01:18:42;3.83;;;2.20;;
64686;SDS011;51113;53.646;-113.674;2022-11-22T01:21:11;9.65;;;2.90;;
64686;SDS011;51113;53.646;-113.674;2022-11-22T01:23:40;6.20;;;2.40;;
64686;SDS011;51113;53.646;-113.674;2022-11-22T01:26:10;5.43;;;2.97;;
64686;SDS011;51113;53.646;-113.674;2022-11-22T01:28:40;5.15;;;2.45;;
64686;SDS011;51113;53.646;-113.674;2022-11-22T01:31:09;6.32;;;2.17;;
64686;SDS011;51113;53.646;-113.674;2022-11-22T01:33:38;5.40;;;2.70;;
64686;SDS011;51113;53.646;-113.674;2022-11-22T01:36:07;6.25;;;2.40;;
64686;SDS011;51113;53.646;-113.674;2022-11-22T01:38:36;6.55;;;2.47;;
64686;SDS011;51113;53.646;-113.674;2022-11-22T01:41:05;5.88;;;2.60;;
64686;SDS011;51113;53.646;-113.674;2022-11-22T01:43:34;4.75;;;2.35;;
64686;SDS011;51113;53.646;-113.674;2022-11-22T01:46:04;8.73;;;2.80;;
64686;SDS011;51113;53.646;-113.674;2022-11-22T01:48:46;7.97;;;2.50;;
64686;SDS011;51113;53.646;-113.674;2022-11-22T01:51:36;5.82;;;2.40;;
64686;SDS011;51113;53.646;-113.674;2022-11-22T01:54:08;5.45;;;2.25;;
64686;SDS011;51113;53.646;-113.674;2022-11-22T01:56:43;5.45;;;2.42;;
64686;SDS011;51113;53.646;-113.674;2022-11-22T01:59:16;8.55;;;2.58;;
64686;SDS011;51113;53.646;-113.674;2022-11-22T02:01:48;5.35;;;2.55;;
64686;SDS011;51113;53.646;-113.674;2022-11-22T02:04:17;6.57;;;2.55;;
64686;SDS011;51113;53.646;-113.674;2022-11-22T02:09:25;7.15;;;2.40;;
64686;SDS011;51113;53.646;-113.674;2022-11-22T02:11:56;5.30;;;2.53;;
64686;SDS011;51113;53.646;-113.674;2022-11-22T02:14:27;5.25;;;2.30;;
64686;SDS011;51113;53.646;-113.674;2022-11-22T02:16:57;4.88;;;1.95;;
64686;SDS011;51113;53.646;-113.674;2022-11-22T02:19:32;5.75;;;2.50;;
64686;SDS011;51113;53.646;-113.674;2022-11-22T02:28:11;6.45;;;2.40;;
64686;SDS011;51113;53.646;-113.674;2022-11-22T02:30:41;6.43;;;2.50;;
64686;SDS011;51113;53.646;-113.674;2022-11-22T02:33:10;5.13;;;2.30;;
64686;SDS011;51113;53.646;-113.674;2022-11-22T02:35:39;3.90;;;2.30;;
64686;SDS011;51113;53.646;-113.674;2022-11-22T02:38:13;6.90;;;2.50;;
64686;SDS011;51113;53.646;-113.674;2022-11-22T02:40:50;4.20;;;2.63;;
64686;SDS011;51113;53.646;-113.674;2022-11-22T02:43:22;4.03;;;2.35;;
64686;SDS011;51113;53.646;-113.674;2022-11-22T02:46:13;5.85;;;2.75;;
64686;SDS011;51113;53.646;-113.674;2022-11-22T02:48:48;5.57;;;2.88;;
64686;SDS011;51113;53.646;-113.674;2022-11-22T02:51:17;7.88;;;3.25;;
64686;SDS011;51113;53.646;-113.674;2022-11-22T02:53:47;5.03;;;2.88;;
64686;SDS011;51113;53.646;-113.674;2022-11-22T02:56:18;4.82;;;2.70;;
64686;SDS011;51113;53.646;-113.674;2022-11-22T02:58:46;10.30;;;2.95;;
64686;SDS011;51113;53.646;-113.674;2022-11-22T03:01:15;7.85;;;3.25;;
64686;SDS011;51113;53.646;-113.674;2022-11-22T03:03:44;7.28;;;2.38;;
64686;SDS011;51113;53.646;-113.674;2022-11-22T03:06:13;5.32;;;2.90;;
64686;SDS011;51113;53.646;-113.674;2022-11-22T03:08:41;7.20;;;2.78;;
64686;SDS011;51113;53.646;-113.674;2022-11-22T03:11:11;5.40;;;2.67;;
64686;SDS011;51113;53.646;-113.674;2022-11-22T03:13:40;6.75;;;3.13;;
64686;SDS011;51113;53.646;-113.674;2022-11-22T03:16:09;5.57;;;3.17;;
64686;SDS011;51113;53.646;-113.674;2022-11-22T03:18:39;6.28;;;3.20;;
64686;SDS011;51113;53.646;-113.674;2022-11-22T03:21:08;7.57;;;3.50;;
64686;SDS011;51113;53.646;-113.674;2022-11-22T03:23:37;5.40;;;3.30;;
64686;SDS011;51113;53.646;-113.674;2022-11-22T03:26:10;6.35;;;2.50;;
64686;SDS011;51113;53.646;-113.674;2022-11-22T03:28:39;7.38;;;3.40;;
64686;SDS011;51113;53.646;-113.674;2022-11-22T03:31:08;6.30;;;2.90;;
64686;SDS011;51113;53.646;-113.674;2022-11-22T03:33:37;6.30;;;2.60;;
64686;SDS011;51113;53.646;-113.674;2022-11-22T03:36:06;6.10;;;2.80;;
64686;SDS011;51113;53.646;-113.674;2022-11-22T03:38:35;6.90;;;2.78;;
64686;SDS011;51113;53.646;-113.674;2022-11-22T03:41:04;9.20;;;2.78;;
64686;SDS011;51113;53.646;-113.674;2022-11-22T03:43:32;6.10;;;2.80;;
64686;SDS011;51113;53.646;-113.674;2022-11-22T03:46:02;4.25;;;2.70;;
64686;SDS011;51113;53.646;-113.674;2022-11-22T03:48:31;4.72;;;2.40;;
64686;SDS011;51113;53.646;-113.674;2022-11-22T03:51:04;4.85;;;3.03;;
64686;SDS011;51113;53.646;-113.674;2022-11-22T03:53:33;7.50;;;2.40;;
64686;SDS011;51113;53.646;-113.674;2022-11-22T03:56:02;3.88;;;2.38;;
64686;SDS011;51113;53.646;-113.674;2022-11-22T03:58:32;7.07;;;2.60;;
64686;SDS011;51113;53.646;-113.674;2022-11-22T04:01:01;7.00;;;2.97;;
64686;SDS011;51113;53.646;-113.674;2022-11-22T04:03:30;6.07;;;2.88;;
64686;SDS011;51113;53.646;-113.674;2022-11-22T04:06:00;5.47;;;2.47;;
64686;SDS011;51113;53.646;-113.674;2022-11-22T04:08:29;4.53;;;2.33;;
64686;SDS011;51113;53.646;-113.674;2022-11-22T04:10:58;4.43;;;2.70;;
64686;SDS011;51113;53.646;-113.674;2022-11-22T04:13:27;4.47;;;2.25;;
64686;SDS011;51113;53.646;-113.674;2022-11-22T04:16:17;4.65;;;2.35;;
64686;SDS011;51113;53.646;-113.674;2022-11-22T04:18:45;5.22;;;2.75;;
64686;SDS011;51113;53.646;-113.674;2022-11-22T04:21:14;5.85;;;2.65;;
64686;SDS011;51113;53.646;-113.674;2022-11-22T04:24:05;3.85;;;2.47;;
64686;SDS011;51113;53.646;-113.674;2022-11-22T04:26:55;4.90;;;2.47;;
64686;SDS011;51113;53.646;-113.674;2022-11-22T04:29:32;5.18;;;2.65;;
64686;SDS011;51113;53.646;-113.674;2022-11-22T04:32:01;7.53;;;2.60;;
64686;SDS011;51113;53.646;-113.674;2022-11-22T04:34:47;5.63;;;2.80;;
64686;SDS011;51113;53.646;-113.674;2022-11-22T04:37:16;8.95;;;2.88;;
64686;SDS011;51113;53.646;-113.674;2022-11-22T04:39:45;7.40;;;3.05;;
64686;SDS011;51113;53.646;-113.674;2022-11-22T04:42:14;11.70;;;2.70;;
64686;SDS011;51113;53.646;-113.674;2022-11-22T04:45:01;4.97;;;2.65;;
64686;SDS011;51113;53.646;-113.674;2022-11-22T04:47:30;4.85;;;2.55;;
64686;SDS011;51113;53.646;-113.674;2022-11-22T04:50:17;4.47;;;2.70;;
64686;SDS011;51113;53.646;-113.674;2022-11-22T04:53:04;4.60;;;2.40;;
64686;SDS011;51113;53.646;-113.674;2022-11-22T04:55:33;4.68;;;2.40;;
64686;SDS011;51113;53.646;-113.674;2022-11-22T04:58:02;8.63;;;2.30;;
64686;SDS011;51113;53.646;-113.674;2022-11-22T05:00:31;3.40;;;2.20;;
64686;SDS011;51113;53.646;-113.674;2022-11-22T05:03:00;4.57;;;2.42;;
64686;SDS011;51113;53.646;-113.674;2022-11-22T05:05:30;6.10;;;2.10;;
64686;SDS011;51113;53.646;-113.674;2022-11-22T05:08:02;3.67;;;2.30;;
64686;SDS011;51113;53.646;-113.674;2022-11-22T05:10:32;2.85;;;1.90;;
64686;SDS011;51113;53.646;-113.674;2022-11-22T05:13:22;6.13;;;2.33;;
64686;SDS011;51113;53.646;-113.674;2022-11-22T05:15:52;3.78;;;2.15;;
64686;SDS011;51113;53.646;-113.674;2022-11-22T05:18:21;7.35;;;2.40;;
64686;SDS011;51113;53.646;-113.674;2022-11-22T05:20:50;5.45;;;2.47;;
64686;SDS011;51113;53.646;-113.674;2022-11-22T05:23:19;5.55;;;2.30;;
64686;SDS011;51113;53.646;-113.674;2022-11-22T05:26:07;3.50;;;2.13;;
64686;SDS011;51113;53.646;-113.674;2022-11-22T05:28:37;3.92;;;2.10;;
64686;SDS011;51113;53.646;-113.674;2022-11-22T05:31:10;6.65;;;2.58;;
64686;SDS011;51113;53.646;-113.674;2022-11-22T05:33:42;4.55;;;2.22;;
64686;SDS011;51113;53.646;-113.674;2022-11-22T05:36:12;4.30;;;2.28;;
64686;SDS011;51113;53.646;-113.674;2022-11-22T05:38:41;3.22;;;2.10;;
64686;SDS011;51113;53.646;-113.674;2022-11-22T05:41:11;5.45;;;2.40;;
64686;SDS011;51113;53.646;-113.674;2022-11-22T05:43:40;3.80;;;2.08;;
64686;SDS011;51113;53.646;-113.674;2022-11-22T05:46:10;3.25;;;2.08;;
64686;SDS011;51113;53.646;-113.674;2022-11-22T05:48:47;3.15;;;2.05;;
64686;SDS011;51113;53.646;-113.674;2022-11-22T05:51:18;5.35;;;2.50;;
64686;SDS011;51113;53.646;-113.674;2022-11-22T05:53:49;9.60;;;2.65;;
64686;SDS011;51113;53.646;-113.674;2022-11-22T05:56:19;3.42;;;2.05;;
64686;SDS011;51113;53.646;-113.674;2022-11-22T05:58:50;9.52;;;3.25;;
64686;SDS011;51113;53.646;-113.674;2022-11-22T06:01:22;6.07;;;2.33;;
64686;SDS011;51113;53.646;-113.674;2022-11-22T06:03:51;4.38;;;2.38;;
64686;SDS011;51113;53.646;-113.674;2022-11-22T06:06:21;3.85;;;2.20;;
64686;SDS011;51113;53.646;-113.674;2022-11-22T06:08:50;3.95;;;2.13;;
64686;SDS011;51113;53.646;-113.674;2022-11-22T06:11:20;6.30;;;2.47;;
64686;SDS011;51113;53.646;-113.674;2022-11-22T06:13:51;5.30;;;2.50;;
64686;SDS011;51113;53.646;-113.674;2022-11-22T06:16:24;4.28;;;2.47;;
64686;SDS011;51113;53.646;-113.674;2022-11-22T06:18:54;3.83;;;2.20;;
64686;SDS011;51113;53.646;-113.674;2022-11-22T06:21:24;3.45;;;2.17;;
64686;SDS011;51113;53.646;-113.674;2022-11-22T06:23:53;3.70;;;2.22;;
64686;SDS011;51113;53.646;-113.674;2022-11-22T06:26:23;4.53;;;2.30;;
64686;SDS011;51113;53.646;-113.674;2022-11-22T06:28:53;4.97;;;2.20;;
64686;SDS011;51113;53.646;-113.674;2022-11-22T06:31:23;4.20;;;2.33;;
64686;SDS011;51113;53.646;-113.674;2022-11-22T06:33:53;4.07;;;2.10;;
64686;SDS011;51113;53.646;-113.674;2022-11-22T06:36:25;4.47;;;2.60;;
64686;SDS011;51113;53.646;-113.674;2022-11-22T06:38:55;4.35;;;2.30;;
64686;SDS011;51113;53.646;-113.674;2022-11-22T06:41:26;4.75;;;2.30;;
64686;SDS011;51113;53.646;-113.674;2022-11-22T06:43:58;4.63;;;2.30;;
64686;SDS011;51113;53.646;-113.674;2022-11-22T06:46:34;3.55;;;2.10;;
64686;SDS011;51113;53.646;-113.674;2022-11-22T06:49:04;8.50;;;2.78;;
64686;SDS011;51113;53.646;-113.674;2022-11-22T06:51:33;3.88;;;1.98;;
64686;SDS011;51113;53.646;-113.674;2022-11-22T06:54:02;3.25;;;2.05;;
64686;SDS011;51113;53.646;-113.674;2022-11-22T06:56:34;3.47;;;2.10;;
64686;SDS011;51113;53.646;-113.674;2022-11-22T06:59:04;4.30;;;2.08;;
64686;SDS011;51113;53.646;-113.674;2022-11-22T07:01:35;3.58;;;2.00;;
64686;SDS011;51113;53.646;-113.674;2022-11-22T07:04:04;3.80;;;2.33;;
64686;SDS011;51113;53.646;-113.674;2022-11-22T07:06:34;4.43;;;2.20;;
64686;SDS011;51113;53.646;-113.674;2022-11-22T07:09:06;5.78;;;2.10;;
64686;SDS011;51113;53.646;-113.674;2022-11-22T07:11:36;3.70;;;2.20;;
64686;SDS011;51113;53.646;-113.674;2022-11-22T07:14:05;6.47;;;2.15;;
64686;SDS011;51113;53.646;-113.674;2022-11-22T07:16:35;3.50;;;2.17;;
64686;SDS011;51113;53.646;-113.674;2022-11-22T07:19:05;6.57;;;2.05;;
64686;SDS011;51113;53.646;-113.674;2022-11-22T07:21:35;3.53;;;2.10;;
64686;SDS011;51113;53.646;-113.674;2022-11-22T07:24:04;5.47;;;2.38;;
64686;SDS011;51113;53.646;-113.674;2022-11-22T07:26:34;5.53;;;2.30;;
64686;SDS011;51113;53.646;-113.674;2022-11-22T07:29:03;6.70;;;2.17;;
64686;SDS011;51113;53.646;-113.674;2022-11-22T07:31:32;3.50;;;2.05;;
64686;SDS011;51113;53.646;-113.674;2022-11-22T07:34:02;3.60;;;2.00;;
64686;SDS011;51113;53.646;-113.674;2022-11-22T07:36:30;4.82;;;2.00;;
64686;SDS011;51113;53.646;-113.674;2022-11-22T07:38:59;6.88;;;2.50;;
64686;SDS011;51113;53.646;-113.674;2022-11-22T07:41:30;3.58;;;2.20;;
64686;SDS011;51113;53.646;-113.674;2022-11-22T07:43:59;3.08;;;2.08;;
64686;SDS011;51113;53.646;-113.674;2022-11-22T07:46:28;4.40;;;2.42;;
64686;SDS011;51113;53.646;-113.674;2022-11-22T07:48:59;4.03;;;2.20;;
64686;SDS011;51113;53.646;-113.674;2022-11-22T07:51:28;5.43;;;2.05;;
64686;SDS011;51113;53.646;-113.674;2022-11-22T07:53:57;3.17;;;1.90;;
64686;SDS011;51113;53.646;-113.674;2022-11-22T07:56:26;6.72;;;2.17;;
64686;SDS011;51113;53.646;-113.674;2022-11-22T07:58:55;6.45;;;2.45;;
64686;SDS011;51113;53.646;-113.674;2022-11-22T08:01:24;4.43;;;2.28;;
64686;SDS011;51113;53.646;-113.674;2022-11-22T08:03:53;5.50;;;2.13;;
64686;SDS011;51113;53.646;-113.674;2022-11-22T08:06:21;2.78;;;1.88;;
64686;SDS011;51113;53.646;-113.674;2022-11-22T08:08:50;4.78;;;2.13;;
64686;SDS011;51113;53.646;-113.674;2022-11-22T08:11:27;5.55;;;2.28;;
64686;SDS011;51113;53.646;-113.674;2022-11-22T08:13:55;3.28;;;2.20;;
64686;SDS011;51113;53.646;-113.674;2022-11-22T08:16:25;3.85;;;2.10;;
64686;SDS011;51113;53.646;-113.674;2022-11-22T08:18:54;3.47;;;2.08;;
64686;SDS011;51113;53.646;-113.674;2022-11-22T08:21:23;4.90;;;1.90;;
64686;SDS011;51113;53.646;-113.674;2022-11-22T08:23:55;3.42;;;1.80;;
64686;SDS011;51113;53.646;-113.674;2022-11-22T08:26:26;5.65;;;2.60;;
64686;SDS011;51113;53.646;-113.674;2022-11-22T08:28:55;4.72;;;2.30;;
64686;SDS011;51113;53.646;-113.674;2022-11-22T08:31:23;3.85;;;2.35;;
64686;SDS011;51113;53.646;-113.674;2022-11-22T08:33:54;3.13;;;2.10;;
64686;SDS011;51113;53.646;-113.674;2022-11-22T08:36:24;5.72;;;2.20;;
64686;SDS011;51113;53.646;-113.674;2022-11-22T08:38:54;4.35;;;2.20;;
64686;SDS011;51113;53.646;-113.674;2022-11-22T08:41:23;5.28;;;2.08;;
64686;SDS011;51113;53.646;-113.674;2022-11-22T08:43:52;4.35;;;2.00;;
64686;SDS011;51113;53.646;-113.674;2022-11-22T08:46:22;3.15;;;1.98;;
64686;SDS011;51113;53.646;-113.674;2022-11-22T08:48:51;4.57;;;2.00;;
64686;SDS011;51113;53.646;-113.674;2022-11-22T08:51:21;3.78;;;1.98;;
64686;SDS011;51113;53.646;-113.674;2022-11-22T08:53:49;4.05;;;1.90;;
64686;SDS011;51113;53.646;-113.674;2022-11-22T08:56:18;3.28;;;1.70;;
64686;SDS011;51113;53.646;-113.674;2022-11-22T08:58:47;3.55;;;1.67;;
64686;SDS011;51113;53.646;-113.674;2022-11-22T09:01:17;5.22;;;2.10;;
64686;SDS011;51113;53.646;-113.674;2022-11-22T09:03:48;4.70;;;1.90;;
64686;SDS011;51113;53.646;-113.674;2022-11-22T09:06:18;4.35;;;2.00;;
64686;SDS011;51113;53.646;-113.674;2022-11-22T09:09:08;5.53;;;2.00;;
64686;SDS011;51113;53.646;-113.674;2022-11-22T09:11:57;3.75;;;1.70;;
64686;SDS011;51113;53.646;-113.674;2022-11-22T09:14:26;4.90;;;2.40;;
64686;SDS011;51113;53.646;-113.674;2022-11-22T09:16:55;3.55;;;2.20;;
64686;SDS011;51113;53.646;-113.674;2022-11-22T09:19:24;4.10;;;1.80;;
64686;SDS011;51113;53.646;-113.674;2022-11-22T09:21:53;4.47;;;2.13;;
64686;SDS011;51113;53.646;-113.674;2022-11-22T09:24:23;3.65;;;1.88;;
64686;SDS011;51113;53.646;-113.674;2022-11-22T09:26:52;3.67;;;1.83;;
64686;SDS011;51113;53.646;-113.674;2022-11-22T09:29:20;3.28;;;1.77;;
64686;SDS011;51113;53.646;-113.674;2022-11-22T09:31:51;3.47;;;1.60;;
64686;SDS011;51113;53.646;-113.674;2022-11-22T09:34:22;2.65;;;1.77;;
64686;SDS011;51113;53.646;-113.674;2022-11-22T09:36:51;2.95;;;1.77;;
64686;SDS011;51113;53.646;-113.674;2022-11-22T09:39:20;3.15;;;2.10;;
64686;SDS011;51113;53.646;-113.674;2022-11-22T09:41:54;3.15;;;1.60;;
64686;SDS011;51113;53.646;-113.674;2022-11-22T09:50:13;3.08;;;1.88;;
64686;SDS011;51113;53.646;-113.674;2022-11-22T09:53:07;2.22;;;1.63;;
64686;SDS011;51113;53.646;-113.674;2022-11-22T09:55:44;3.53;;;1.70;;
64686;SDS011;51113;53.646;-113.674;2022-11-22T09:58:26;2.85;;;1.73;;
64686;SDS011;51113;53.646;-113.674;2022-11-22T10:01:21;3.15;;;1.85;;
64686;SDS011;51113;53.646;-113.674;2022-11-22T10:17:46;3.55;;;1.80;;
64686;SDS011;51113;53.646;-113.674;2022-11-22T10:20:22;3.75;;;2.08;;
64686;SDS011;51113;53.646;-113.674;2022-11-22T10:22:57;2.97;;;1.70;;
64686;SDS011;51113;53.646;-113.674;2022-11-22T10:25:33;2.65;;;1.77;;
64686;SDS011;51113;53.646;-113.674;2022-11-22T10:28:11;3.22;;;1.67;;
64686;SDS011;51113;53.646;-113.674;2022-11-22T10:31:13;4.53;;;1.85;;
64686;SDS011;51113;53.646;-113.674;2022-11-22T10:33:58;5.40;;;1.90;;
64686;SDS011;51113;53.646;-113.674;2022-11-22T10:44:50;4.80;;;1.70;;
64686;SDS011;51113;53.646;-113.674;2022-11-22T10:53:05;3.00;;;1.60;;
64686;SDS011;51113;53.646;-113.674;2022-11-22T11:01:20;4.25;;;1.60;;
64686;SDS011;51113;53.646;-113.674;2022-11-22T11:03:58;2.25;;;1.40;;
64686;SDS011;51113;53.646;-113.674;2022-11-22T11:06:31;2.95;;;1.60;;
64686;SDS011;51113;53.646;-113.674;2022-11-22T11:09:36;2.70;;;1.60;;
64686;SDS011;51113;53.646;-113.674;2022-11-22T11:12:37;2.75;;;1.60;;
64686;SDS011;51113;53.646;-113.674;2022-11-22T11:15:13;4.10;;;1.50;;
64686;SDS011;51113;53.646;-113.674;2022-11-22T11:17:57;3.72;;;1.67;;
64686;SDS011;51113;53.646;-113.674;2022-11-22T11:20:32;2.72;;;1.50;;
64686;SDS011;51113;53.646;-113.674;2022-11-22T11:23:02;3.25;;;1.75;;
64686;SDS011;51113;53.646;-113.674;2022-11-22T11:25:46;3.67;;;1.65;;
64686;SDS011;51113;53.646;-113.674;2022-11-22T11:28:20;3.67;;;1.60;;
64686;SDS011;51113;53.646;-113.674;2022-11-22T11:33:45;3.03;;;1.83;;
64686;SDS011;51113;53.646;-113.674;2022-11-22T11:36:21;3.72;;;1.70;;
64686;SDS011;51113;53.646;-113.674;2022-11-22T11:38:52;2.10;;;1.40;;
64686;SDS011;51113;53.646;-113.674;2022-11-22T11:41:28;4.28;;;1.60;;
64686;SDS011;51113;53.646;-113.674;2022-11-22T11:43:58;3.17;;;1.40;;
64686;SDS011;51113;53.646;-113.674;2022-11-22T11:46:42;4.65;;;1.85;;
64686;SDS011;51113;53.646;-113.674;2022-11-22T11:49:16;2.25;;;1.50;;
64686;SDS011;51113;53.646;-113.674;2022-11-22T11:51:47;3.25;;;1.55;;
64686;SDS011;51113;53.646;-113.674;2022-11-22T11:54:24;2.45;;;1.65;;
64686;SDS011;51113;53.646;-113.674;2022-11-22T11:56:57;3.60;;;1.50;;
64686;SDS011;51113;53.646;-113.674;2022-11-22T12:02:07;3.67;;;1.60;;
64686;SDS011;51113;53.646;-113.674;2022-11-22T12:04:46;3.58;;;1.55;;
64686;SDS011;51113;53.646;-113.674;2022-11-22T12:09:52;2.28;;;1.60;;
64686;SDS011;51113;53.646;-113.674;2022-11-22T12:17:58;2.92;;;1.88;;
64686;SDS011;51113;53.646;-113.674;2022-11-22T12:20:41;2.50;;;1.65;;
64686;SDS011;51113;53.646;-113.674;2022-11-22T12:23:25;2.50;;;1.75;;
64686;SDS011;51113;53.646;-113.674;2022-11-22T12:26:16;3.35;;;1.80;;
64686;SDS011;51113;53.646;-113.674;2022-11-22T12:28:46;2.85;;;1.85;;
64686;SDS011;51113;53.646;-113.674;2022-11-22T12:33:59;2.45;;;1.75;;
64686;SDS011;51113;53.646;-113.674;2022-11-22T12:36:42;2.17;;;1.70;;
64686;SDS011;51113;53.646;-113.674;2022-11-22T12:39:22;4.88;;;2.20;;
64686;SDS011;51113;53.646;-113.674;2022-11-22T12:42:12;4.25;;;1.90;;
64686;SDS011;51113;53.646;-113.674;2022-11-22T12:44:52;6.35;;;1.98;;
64686;SDS011;51113;53.646;-113.674;2022-11-22T12:47:25;2.30;;;1.50;;
64686;SDS011;51113;53.646;-113.674;2022-11-22T12:52:58;2.50;;;1.80;;
64686;SDS011;51113;53.646;-113.674;2022-11-22T12:55:39;2.85;;;1.83;;
64686;SDS011;51113;53.646;-113.674;2022-11-22T13:00:40;3.70;;;1.88;;
64686;SDS011;51113;53.646;-113.674;2022-11-22T13:03:23;3.30;;;1.90;;
64686;SDS011;51113;53.646;-113.674;2022-11-22T13:06:18;4.20;;;1.95;;
64686;SDS011;51113;53.646;-113.674;2022-11-22T13:09:03;3.63;;;2.00;;
64686;SDS011;51113;53.646;-113.674;2022-11-22T13:11:36;3.20;;;2.13;;
64686;SDS011;51113;53.646;-113.674;2022-11-22T13:14:50;2.67;;;1.88;;
64686;SDS011;51113;53.646;-113.674;2022-11-22T13:17:04;2.90;;;2.00;;
64686;SDS011;51113;53.646;-113.674;2022-11-22T13:19:53;2.30;;;1.70;;
64686;SDS011;51113;53.646;-113.674;2022-11-22T13:28:40;2.83;;;1.70;;
64686;SDS011;51113;53.646;-113.674;2022-11-22T13:33:39;2.97;;;2.10;;
64686;SDS011;51113;53.646;-113.674;2022-11-22T13:38:58;3.47;;;2.00;;
64686;SDS011;51113;53.646;-113.674;2022-11-22T13:41:35;2.88;;;1.70;;
64686;SDS011;51113;53.646;-113.674;2022-11-22T13:46:53;2.67;;;1.83;;
64686;SDS011;51113;53.646;-113.674;2022-11-22T13:49:37;3.60;;;1.70;;
64686;SDS011;51113;53.646;-113.674;2022-11-22T14:02:47;3.30;;;1.90;;
64686;SDS011;51113;53.646;-113.674;2022-11-22T14:05:19;4.53;;;1.83;;
64686;SDS011;51113;53.646;-113.674;2022-11-22T14:11:02;3.95;;;1.83;;
64686;SDS011;51113;53.646;-113.674;2022-11-22T14:32:47;3.22;;;1.85;;
64686;SDS011;51113;53.646;-113.674;2022-11-22T14:35:27;3.05;;;1.88;;
64686;SDS011;51113;53.646;-113.674;2022-11-22T14:41:41;3.97;;;1.85;;
64686;SDS011;51113;53.646;-113.674;2022-11-22T14:46:43;2.47;;;1.50;;
64686;SDS011;51113;53.646;-113.674;2022-11-22T14:52:20;5.35;;;1.60;;
64686;SDS011;51113;53.646;-113.674;2022-11-22T14:54:56;3.17;;;1.75;;
64686;SDS011;51113;53.646;-113.674;2022-11-22T14:57:27;3.47;;;1.70;;
64686;SDS011;51113;53.646;-113.674;2022-11-22T15:09:19;3.15;;;1.60;;
64686;SDS011;51113;53.646;-113.674;2022-11-22T15:17:13;3.15;;;1.73;;
64686;SDS011;51113;53.646;-113.674;2022-11-22T15:20:28;4.30;;;1.83;;
64686;SDS011;51113;53.646;-113.674;2022-11-22T15:23:24;2.75;;;1.75;;
64686;SDS011;51113;53.646;-113.674;2022-11-22T15:26:15;3.45;;;1.65;;
64686;SDS011;51113;53.646;-113.674;2022-11-22T15:29:04;2.63;;;1.70;;
64686;SDS011;51113;53.646;-113.674;2022-11-22T15:31:53;4.38;;;1.75;;
64686;SDS011;51113;53.646;-113.674;2022-11-22T15:34:43;3.20;;;1.60;;
64686;SDS011;51113;53.646;-113.674;2022-11-22T15:37:40;4.80;;;1.45;;
64686;SDS011;51113;53.646;-113.674;2022-11-22T15:40:36;3.17;;;1.55;;
64686;SDS011;51113;53.646;-113.674;2022-11-22T15:43:26;4.70;;;1.58;;
64686;SDS011;51113;53.646;-113.674;2022-11-22T15:46:17;4.53;;;1.50;;
64686;SDS011;51113;53.646;-113.674;2022-11-22T15:49:10;4.75;;;1.40;;
64686;SDS011;51113;53.646;-113.674;2022-11-22T15:52:01;1.77;;;1.20;;
64686;SDS011;51113;53.646;-113.674;2022-11-22T15:54:54;2.05;;;1.45;;
64686;SDS011;51113;53.646;-113.674;2022-11-22T15:57:46;2.70;;;1.50;;
64686;SDS011;51113;53.646;-113.674;2022-11-22T16:00:21;4.65;;;1.40;;
64686;SDS011;51113;53.646;-113.674;2022-11-22T16:02:58;2.47;;;1.70;;
64686;SDS011;51113;53.646;-113.674;2022-11-22T16:05:33;4.93;;;1.60;;
64686;SDS011;51113;53.646;-113.674;2022-11-22T16:08:23;4.07;;;1.60;;
64686;SDS011;51113;53.646;-113.674;2022-11-22T16:10:58;4.18;;;1.70;;
64686;SDS011;51113;53.646;-113.674;2022-11-22T16:13:27;4.22;;;1.70;;
64686;SDS011;51113;53.646;-113.674;2022-11-22T16:18:41;2.60;;;1.50;;
64686;SDS011;51113;53.646;-113.674;2022-11-22T16:23:40;3.90;;;1.75;;
64686;SDS011;51113;53.646;-113.674;2022-11-22T16:32:20;4.80;;;2.08;;
64686;SDS011;51113;53.646;-113.674;2022-11-22T16:34:48;5.45;;;2.00;;
64686;SDS011;51113;53.646;-113.674;2022-11-22T16:37:41;3.58;;;1.90;;
64686;SDS011;51113;53.646;-113.674;2022-11-22T16:40:13;8.70;;;2.20;;
64686;SDS011;51113;53.646;-113.674;2022-11-22T16:42:43;3.20;;;1.77;;
64686;SDS011;51113;53.646;-113.674;2022-11-22T16:45:15;7.90;;;2.15;;
64686;SDS011;51113;53.646;-113.674;2022-11-22T16:47:46;5.25;;;1.83;;
64686;SDS011;51113;53.646;-113.674;2022-11-22T16:50:37;5.03;;;1.98;;
64686;SDS011;51113;53.646;-113.674;2022-11-22T16:53:15;4.30;;;1.90;;
64686;SDS011;51113;53.646;-113.674;2022-11-22T16:55:44;5.72;;;2.25;;
64686;SDS011;51113;53.646;-113.674;2022-11-22T16:58:15;6.22;;;2.05;;
64686;SDS011;51113;53.646;-113.674;2022-11-22T17:00:46;4.68;;;2.38;;
64686;SDS011;51113;53.646;-113.674;2022-11-22T17:03:17;8.90;;;2.80;;
64686;SDS011;51113;53.646;-113.674;2022-11-22T17:05:47;5.47;;;2.20;;
64686;SDS011;51113;53.646;-113.674;2022-11-22T17:08:17;8.10;;;3.03;;
64686;SDS011;51113;53.646;-113.674;2022-11-22T17:10:49;4.03;;;2.47;;
64686;SDS011;51113;53.646;-113.674;2022-11-22T17:13:23;9.32;;;2.15;;
64686;SDS011;51113;53.646;-113.674;2022-11-22T17:15:54;7.50;;;2.65;;
64686;SDS011;51113;53.646;-113.674;2022-11-22T17:18:23;9.00;;;2.35;;